createdAt,value
2023-11-12T00:01:36.608Z,6.61
2023-11-12T00:06:42.193Z,6.60
2023-11-12T00:11:47.437Z,6.58
2023-11-12T00:16:49.901Z,6.55
2023-11-12T00:21:52.113Z,6.52
2023-11-12T00:26:54.118Z,6.47
2023-11-12T00:31:57.551Z,6.46
2023-11-12T00:36:59.632Z,6.47
2023-11-12T00:42:01.484Z,6.45
2023-11-12T00:47:03.589Z,6.44
2023-11-12T00:52:09.466Z,6.44
2023-11-12T00:57:11.784Z,6.43
2023-11-12T01:02:17.366Z,6.41
2023-11-12T01:07:20.523Z,6.40
2023-11-12T01:12:24.576Z,6.40
2023-11-12T01:17:26.611Z,6.40
2023-11-12T01:22:28.811Z,6.39
2023-11-12T01:27:30.873Z,6.39
2023-11-12T01:32:34.552Z,6.40
2023-11-12T01:37:36.734Z,6.39
2023-11-12T01:42:39.485Z,6.41
2023-11-12T01:47:45.758Z,6.42
2023-11-12T01:52:49.379Z,6.43
2023-11-12T01:57:54.313Z,6.45
2023-11-12T02:02:57.675Z,6.49
2023-11-12T02:08:02.186Z,6.53
2023-11-12T02:13:08.661Z,6.54
2023-11-12T02:18:11.379Z,6.56
2023-11-12T02:23:16.590Z,6.56
2023-11-12T02:28:20.800Z,6.54
2023-11-12T02:33:28.873Z,6.53
2023-11-12T02:38:32.597Z,6.54
2023-11-12T02:43:35.681Z,6.53
2023-11-12T02:49:09.807Z,6.52
2023-11-12T02:54:11.723Z,6.54
2023-11-12T02:59:13.698Z,6.55
2023-11-12T03:04:16.159Z,6.58
2023-11-12T03:09:18.261Z,6.60
2023-11-12T03:14:20.490Z,6.60
2023-11-12T03:19:23.130Z,6.62
2023-11-12T03:24:25.432Z,6.63
2023-11-12T03:29:27.772Z,6.66
2023-11-12T03:34:29.669Z,6.67
2023-11-12T03:39:31.732Z,6.69
2023-11-12T03:44:33.717Z,6.70
2023-11-12T03:49:36.706Z,6.70
2023-11-12T03:54:39.110Z,6.71
2023-11-12T03:59:41.474Z,6.74
2023-11-12T04:04:44.686Z,6.72
2023-11-12T04:09:46.781Z,6.73
2023-11-12T04:14:49.024Z,6.74
2023-11-12T04:19:51.936Z,6.73
2023-11-12T04:24:54.577Z,6.70
2023-11-12T04:29:56.887Z,6.68
2023-11-12T04:34:59.164Z,6.68
2023-11-12T04:40:01.451Z,6.66
2023-11-12T04:45:04.267Z,6.67
2023-11-12T04:50:06.987Z,6.67
2023-11-12T04:55:09.156Z,6.67
2023-11-12T05:00:13.965Z,6.67
2023-11-12T05:05:18.134Z,6.65
2023-11-12T05:10:20.393Z,6.65
2023-11-12T05:15:22.419Z,6.64
2023-11-12T05:20:26.019Z,6.64
2023-11-12T05:25:28.913Z,6.64
2023-11-12T05:30:31.104Z,6.64
2023-11-12T05:35:33.056Z,6.65
2023-11-12T05:40:35.152Z,6.63
2023-11-12T05:45:37.429Z,6.62
2023-11-12T05:50:39.862Z,6.62
2023-11-12T05:55:41.880Z,6.62
2023-11-12T06:00:44.477Z,6.63
2023-11-12T06:05:46.644Z,6.63
2023-11-12T06:10:50.293Z,6.62
2023-11-12T06:15:52.683Z,6.62
2023-11-12T06:20:54.926Z,6.63
2023-11-12T06:25:57.500Z,6.62
2023-11-12T06:30:59.692Z,6.62
2023-11-12T06:36:02.930Z,6.63
2023-11-12T06:41:05.049Z,6.65
2023-11-12T06:46:08.829Z,6.67
2023-11-12T06:51:21.041Z,6.67
2023-11-12T06:56:24.531Z,6.69
2023-11-12T07:01:48.619Z,6.74
2023-11-12T07:07:01.327Z,6.76
2023-11-12T07:12:11.334Z,6.77
2023-11-12T07:17:14.100Z,6.78
2023-11-12T07:22:16.148Z,6.82
2023-11-12T07:27:18.162Z,6.87
2023-11-12T07:32:22.637Z,6.87
2023-11-12T07:37:24.734Z,6.85
2023-11-12T07:42:26.771Z,6.83
2023-11-12T07:47:29.048Z,6.84
2023-11-12T07:52:32.355Z,6.93
2023-11-12T07:57:34.893Z,7.05
2023-11-12T08:02:38.495Z,7.17
2023-11-12T08:07:42.232Z,7.22
2023-11-12T08:12:44.544Z,7.32
2023-11-12T08:17:48.770Z,7.42
2023-11-12T08:22:51.016Z,7.57
2023-11-12T08:27:53.250Z,7.71
2023-11-12T08:32:55.660Z,7.69
2023-11-12T08:38:00.924Z,7.68
2023-11-12T08:43:03.428Z,7.73
2023-11-12T08:48:06.089Z,7.85
2023-11-12T08:53:08.796Z,7.97
2023-11-12T08:58:11.056Z,8.04
2023-11-12T09:03:13.726Z,8.10
2023-11-12T09:08:17.474Z,8.12
2023-11-12T09:13:19.635Z,8.17
2023-11-12T09:18:22.231Z,8.26
2023-11-12T09:23:24.399Z,8.30
2023-11-12T09:28:26.688Z,8.37
2023-11-12T09:33:29.136Z,8.49
2023-11-12T09:38:35.153Z,8.58
2023-11-12T09:43:38.045Z,8.70
2023-11-12T09:48:41.524Z,8.69
2023-11-12T09:53:48.702Z,8.64
2023-11-12T09:58:51.128Z,8.71
2023-11-12T10:03:53.412Z,8.77
2023-11-12T10:08:55.685Z,8.85
2023-11-12T10:13:58.038Z,8.92
2023-11-12T10:19:15.642Z,8.95
2023-11-12T10:24:18.472Z,8.94
2023-11-12T10:29:25.109Z,8.81
2023-11-12T10:34:28.994Z,8.71
2023-11-12T10:39:42.694Z,8.63
2023-11-12T10:44:46.207Z,8.51
2023-11-12T10:49:49.418Z,8.46
2023-11-12T10:54:52.726Z,8.41
2023-11-12T10:59:56.433Z,8.35
2023-11-12T11:05:01.198Z,8.30
2023-11-12T11:10:04.838Z,8.34
2023-11-12T11:15:44.404Z,8.37
2023-11-12T11:21:18.601Z,8.38
2023-11-12T11:26:35.882Z,8.38
2023-11-12T11:31:40.243Z,8.42
2023-11-12T11:36:58.229Z,8.50
2023-11-12T11:42:02.626Z,8.53
2023-11-12T11:47:17.699Z,8.59
2023-11-12T11:52:22.641Z,8.69
2023-11-12T11:57:29.116Z,8.71
2023-11-12T12:02:46.201Z,8.64
2023-11-12T12:08:00.414Z,8.57
2023-11-12T12:13:02.414Z,8.53
2023-11-12T12:18:25.452Z,8.52
2023-11-12T12:23:28.452Z,8.51
2023-11-12T12:28:32.015Z,8.53
2023-11-12T12:33:34.366Z,8.53
2023-11-12T12:38:37.975Z,8.54
2023-11-12T12:43:49.266Z,8.57
2023-11-12T12:48:56.028Z,8.55
2023-11-12T12:53:59.004Z,8.52
2023-11-12T12:59:00.913Z,8.51
2023-11-12T13:04:03.953Z,8.55
2023-11-12T13:09:18.567Z,8.60
2023-11-12T13:14:22.145Z,8.65
2023-11-12T13:19:26.163Z,8.67
2023-11-12T13:24:29.980Z,8.65
2023-11-12T13:29:32.139Z,8.68
2023-11-12T13:34:34.189Z,8.72
2023-11-12T13:39:36.334Z,8.75
2023-11-12T13:44:38.446Z,8.74
2023-11-12T13:49:40.709Z,8.74
2023-11-12T13:54:43.639Z,8.72
2023-11-12T13:59:45.992Z,8.70
2023-11-12T14:04:48.068Z,8.64
2023-11-12T14:09:50.242Z,8.66
2023-11-12T14:14:52.853Z,8.67
2023-11-12T14:19:56.849Z,8.66
2023-11-12T14:25:00.809Z,8.67
2023-11-12T14:30:09.668Z,8.64
2023-11-12T14:35:11.686Z,8.63
2023-11-12T14:40:16.030Z,8.63
2023-11-12T14:45:26.126Z,8.64
2023-11-12T14:50:34.290Z,8.62
2023-11-12T14:55:38.323Z,8.62
2023-11-12T15:00:41.348Z,8.60
2023-11-12T15:05:44.008Z,8.54
2023-11-12T15:10:46.363Z,8.52
2023-11-12T15:15:48.722Z,8.48
2023-11-12T15:21:07.867Z,8.47
2023-11-12T15:26:15.513Z,8.42
2023-11-12T15:31:20.778Z,8.41
2023-11-12T15:36:23.451Z,8.41
2023-11-12T15:41:25.985Z,8.40
2023-11-12T15:46:28.638Z,8.38
2023-11-12T15:51:31.233Z,8.39
2023-11-12T15:56:33.844Z,8.36
2023-11-12T16:01:36.802Z,8.36
2023-11-12T16:06:39.182Z,8.35
2023-11-12T16:11:41.771Z,8.35
2023-11-12T16:16:45.788Z,8.35
2023-11-12T16:21:49.484Z,8.35
2023-11-12T16:26:55.560Z,8.33
2023-11-12T16:32:11.100Z,8.33
2023-11-12T16:37:13.596Z,8.29
2023-11-12T16:42:17.979Z,8.25
2023-11-12T16:47:24.905Z,8.23
2023-11-12T16:52:29.769Z,8.23
2023-11-12T16:57:32.067Z,8.21
2023-11-12T17:02:36.994Z,8.19
2023-11-12T17:07:39.570Z,8.19
2023-11-12T17:12:43.642Z,8.20
2023-11-12T17:17:49.610Z,8.20
2023-11-12T17:23:19.089Z,8.21
2023-11-12T17:28:21.495Z,8.19
2023-11-12T17:33:27.720Z,8.17
2023-11-12T17:38:30.054Z,8.16
2023-11-12T17:43:32.541Z,8.17
2023-11-12T17:48:34.781Z,8.17
2023-11-12T17:53:37.907Z,8.15
2023-11-12T17:58:40.841Z,8.15
2023-11-12T18:03:44.494Z,8.12
2023-11-12T18:08:47.079Z,8.10
2023-11-12T18:13:49.086Z,8.10
2023-11-12T18:18:51.298Z,8.09
2023-11-12T18:23:53.305Z,8.09
2023-11-12T18:28:55.348Z,8.08
2023-11-12T18:33:57.293Z,8.07
2023-11-12T18:38:59.602Z,8.10
2023-11-12T18:44:05.710Z,8.10
2023-11-12T18:49:07.610Z,8.11
2023-11-12T18:54:09.724Z,8.10
2023-11-12T18:59:13.010Z,8.10
2023-11-12T19:04:16.736Z,8.09
2023-11-12T19:09:19.123Z,8.05
2023-11-12T19:14:21.147Z,8.03
2023-11-12T19:19:26.141Z,8.03
2023-11-12T19:24:29.494Z,8.01
2023-11-12T19:29:31.548Z,8.00
2023-11-12T19:34:35.746Z,8.00
2023-11-12T19:39:40.154Z,7.99
2023-11-12T19:44:45.185Z,8.00
2023-11-12T19:49:47.065Z,7.98
2023-11-12T19:54:49.678Z,7.97
2023-11-12T19:59:51.806Z,7.97
2023-11-12T20:04:53.683Z,7.97
2023-11-12T20:09:56.818Z,7.97
2023-11-12T20:15:02.709Z,7.95
2023-11-12T20:20:05.449Z,7.95
2023-11-12T20:25:08.886Z,7.95
2023-11-12T20:30:11.419Z,7.96
2023-11-12T20:35:13.844Z,7.96
2023-11-12T20:40:16.841Z,7.96
2023-11-12T20:45:20.642Z,7.97
2023-11-12T20:50:24.536Z,7.98
2023-11-12T20:55:26.948Z,7.98
2023-11-12T21:00:29.835Z,7.98
2023-11-12T21:05:35.815Z,7.97
2023-11-12T21:10:37.846Z,7.95
2023-11-12T21:15:42.109Z,7.94
2023-11-12T21:20:45.771Z,7.91
2023-11-12T21:25:48.324Z,7.88
2023-11-12T21:30:50.653Z,7.88
2023-11-12T21:35:55.241Z,7.85
2023-11-12T21:40:57.515Z,7.85
2023-11-12T21:46:00.172Z,7.84
2023-11-12T21:51:02.400Z,7.84
2023-11-12T21:56:05.662Z,7.82
2023-11-12T22:01:12.576Z,7.82
2023-11-12T22:06:14.763Z,7.83
2023-11-12T22:11:16.892Z,7.83
2023-11-12T22:16:19.626Z,7.85
2023-11-12T22:21:21.756Z,7.87
2023-11-12T22:26:24.117Z,7.87
2023-11-12T22:31:26.548Z,7.87
2023-11-12T22:36:32.409Z,7.88
2023-11-12T22:41:34.766Z,7.87
2023-11-12T22:46:37.046Z,7.84
2023-11-12T22:51:39.269Z,7.80
2023-11-12T22:56:41.806Z,7.78
2023-11-12T23:01:44.269Z,7.77
2023-11-12T23:06:48.590Z,7.77
2023-11-12T23:11:50.983Z,7.77
2023-11-12T23:16:57.680Z,7.77
2023-11-12T23:22:04.553Z,7.78
2023-11-12T23:27:06.725Z,7.78
2023-11-12T23:32:10.005Z,7.76
2023-11-12T23:37:14.657Z,7.75
2023-11-12T23:42:18.332Z,7.76
2023-11-12T23:47:21.220Z,7.73
2023-11-12T23:52:23.529Z,7.73
2023-11-12T23:57:25.548Z,7.73
